Time;durP1;ratioP1;P1;durP2;ratioP2;P2;SDS_P1;SDS_P2;PMS_P1;PMS_P2;Temp;Humidity;BMP_temperature;BMP_pressure;BME280_temperature;BME280_humidity;BME280_pressure;Samples;Min_cycle;Max_cycle;Signal;HPM_P1;HPM_P2
2022/09/29 00:00:52;;;;;;;;;;;16.30;97.60;;;;;;5059534;28;19912;-65
2022/09/29 00:03:18;;;;;;;;;;;16.30;97.60;;;;;;5057982;28;19916;-66
2022/09/29 00:05:48;;;;;;;;;;;16.30;97.60;;;;;;5059374;28;19970;-66
2022/09/29 00:08:14;;;;;;;;;;;16.30;97.60;;;;;;5060322;28;19936;-66
2022/09/29 00:10:40;;;;;;;;;;;16.30;97.60;;;;;;5061123;28;20190;-66
2022/09/29 00:13:05;;;;;;;;;;;16.30;97.60;;;;;;5059514;28;19908;-66
2022/09/29 00:15:31;;;;;;;;;;;16.30;97.60;;;;;;5059858;28;19934;-66
2022/09/29 00:17:56;;;;;;;;;;;16.30;97.60;;;;;;5060469;28;19916;-66
2022/09/29 00:20:22;;;;;;;;;;;16.30;97.60;;;;;;5059248;28;20167;-66
2022/09/29 00:22:51;;;;;;;;;;;16.30;97.60;;;;;;5054971;28;19908;-66
2022/09/29 00:25:19;;;;;;;;;;;16.30;97.50;;;;;;5057321;28;19969;-66
2022/09/29 00:27:45;;;;;;;;;;;16.30;97.70;;;;;;5056408;28;20291;-66
2022/09/29 00:30:11;;;;;;;;;;;16.30;97.40;;;;;;5057089;28;19956;-65
2022/09/29 00:32:39;;;;;;;;;;;16.30;97.30;;;;;;5057086;28;19909;-65
2022/09/29 00:35:07;;;;;;;;;;;16.30;97.20;;;;;;5057136;28;19909;-65
2022/09/29 00:37:33;;;;;;;;;;;16.40;97.20;;;;;;5057814;28;20312;-66
2022/09/29 00:40:00;;;;;;;;;;;16.40;97.10;;;;;;5056105;28;20308;-66
2022/09/29 00:42:26;;;;;;;;;;;16.30;97.00;;;;;;5054837;28;19909;-65
2022/09/29 00:44:59;;;;;;;;;;;16.40;97.00;;;;;;5056835;28;19960;-66
2022/09/29 00:47:25;;;;;;;;;;;16.40;96.90;;;;;;5074634;28;19915;-65
2022/09/29 00:49:50;;;;;;;;;;;16.40;96.90;;;;;;5059892;28;19923;-65
2022/09/29 00:52:16;;;;;;;;;;;16.40;96.90;;;;;;5059305;28;19908;-65
2022/09/29 00:54:46;;;;;;;;;;;16.40;96.80;;;;;;5059422;28;20266;-66
2022/09/29 00:57:13;;;;;;;;;;;16.40;96.80;;;;;;5059289;28;19912;-66
2022/09/29 00:59:45;;;;;;;;;;;16.40;96.70;;;;;;5059683;28;19912;-66
2022/09/29 01:02:11;;;;;;;;;;;16.40;96.70;;;;;;5058211;28;19919;-65
2022/09/29 01:04:37;;;;;;;;;;;16.40;96.70;;;;;;5058097;28;19908;-65
2022/09/29 01:07:02;;;;;;;;;;;16.40;96.60;;;;;;5057796;28;19935;-65
2022/09/29 01:09:33;;;;;;;;;;;16.40;96.60;;;;;;5058739;28;20333;-66
2022/09/29 01:11:59;;;;;;;;;;;16.40;96.60;;;;;;5074338;28;20022;-66
2022/09/29 01:14:29;;;;;;;;;;;16.40;96.60;;;;;;5057342;28;19972;-66
2022/09/29 01:16:54;;;;;;;;;;;16.40;96.60;;;;;;5057966;28;20297;-65
2022/09/29 01:19:26;;;;;;;;;;;16.30;96.50;;;;;;5058405;28;19913;-66
2022/09/29 01:22:09;;;;;;;;;;;16.30;96.60;;;;;;5057811;28;20119;-66
2022/09/29 01:24:57;;;;;;;;;;;16.30;96.60;;;;;;5059326;28;19909;-66
2022/09/29 01:27:35;;;;;;;;;;;16.30;96.60;;;;;;5060532;28;20253;-66
2022/09/29 01:30:09;;;;;;;;;;;16.30;96.60;;;;;;5060931;28;19923;-66
2022/09/29 01:32:53;;;;;;;;;;;16.30;96.70;;;;;;5057578;28;19908;-65
2022/09/29 01:35:31;;;;;;;;;;;16.20;96.60;;;;;;5056135;28;19918;-66
2022/09/29 01:38:13;;;;;;;;;;;16.20;96.70;;;;;;5055831;28;19928;-66
2022/09/29 01:40:53;;;;;;;;;;;16.20;96.70;;;;;;5055211;28;20343;-66
2022/09/29 01:43:22;;;;;;;;;;;16.20;96.70;;;;;;5053727;28;20003;-66
2022/09/29 01:46:05;;;;;;;;;;;16.20;96.70;;;;;;5054102;28;19965;-66
2022/09/29 01:48:38;;;;;;;;;;;16.20;96.70;;;;;;5053984;28;20210;-66
2022/09/29 01:51:08;;;;;;;;;;;16.20;96.70;;;;;;5055364;28;20240;-66
2022/09/29 01:53:39;;;;;;;;;;;16.20;96.70;;;;;;5072577;28;20217;-66
2022/09/29 01:56:08;;;;;;;;;;;16.20;96.70;;;;;;5055320;28;20253;-65
2022/09/29 01:58:52;;;;;;;;;;;16.20;96.70;;;;;;5056763;28;19909;-65
2022/09/29 02:01:19;;;;;;;;;;;16.10;96.70;;;;;;5057074;28;19993;-66
2022/09/29 02:03:52;;;;;;;;;;;16.10;96.70;;;;;;5056960;28;20252;-65
2022/09/29 02:06:20;;;;;;;;;;;16.10;96.70;;;;;;5057673;28;19909;-65
2022/09/29 02:08:48;;;;;;;;;;;16.10;96.70;;;;;;5048187;28;20405;-66
2022/09/29 02:11:15;;;;;;;;;;;16.10;96.70;;;;;;5037371;28;19971;-66
2022/09/29 02:13:50;;;;;;;;;;;16.10;96.90;;;;;;5037402;28;19915;-66
2022/09/29 02:16:16;;;;;;;;;;;16.10;96.70;;;;;;5036419;28;19909;-66
2022/09/29 02:18:59;;;;;;;;;;;16.10;96.70;;;;;;5036482;28;19909;-65
2022/09/29 02:21:26;;;;;;;;;;;16.10;96.70;;;;;;5036678;28;19909;-66
2022/09/29 02:23:51;;;;;;;;;;;16.10;96.70;;;;;;5035824;28;20330;-65
2022/09/29 02:26:18;;;;;;;;;;;16.10;96.70;;;;;;5036635;28;19909;-66
2022/09/29 02:28:44;;;;;;;;;;;16.10;96.60;;;;;;5035706;28;19917;-66
2022/09/29 02:31:10;;;;;;;;;;;16.10;96.60;;;;;;5036601;28;19913;-66
2022/09/29 02:33:35;;;;;;;;;;;16.10;96.60;;;;;;5037949;28;20015;-66
2022/09/29 02:36:01;;;;;;;;;;;16.10;96.50;;;;;;5037095;28;20003;-65
2022/09/29 02:38:39;;;;;;;;;;;16.10;96.50;;;;;;5037247;28;19908;-66
2022/09/29 02:41:13;;;;;;;;;;;16.10;96.40;;;;;;5037013;28;19908;-66
2022/09/29 02:43:51;;;;;;;;;;;16.10;96.40;;;;;;5036327;28;20015;-66
2022/09/29 02:46:35;;;;;;;;;;;16.10;96.30;;;;;;5037471;28;19935;-66
2022/09/29 02:49:07;;;;;;;;;;;16.10;96.20;;;;;;5037276;28;20003;-65
2022/09/29 02:51:39;;;;;;;;;;;16.10;96.20;;;;;;5038073;28;19928;-66
2022/09/29 02:54:07;;;;;;;;;;;16.10;96.20;;;;;;5036513;28;19909;-66
2022/09/29 02:56:35;;;;;;;;;;;16.10;96.20;;;;;;5054171;28;20188;-65
2022/09/29 02:59:01;;;;;;;;;;;16.10;96.10;;;;;;5035871;28;19923;-65
2022/09/29 03:01:30;;;;;;;;;;;16.10;96.10;;;;;;5034816;28;19908;-66
2022/09/29 03:03:56;;;;;;;;;;;16.10;96.10;;;;;;5035868;28;19909;-66
2022/09/29 03:06:21;;;;;;;;;;;16.10;96.00;;;;;;5036541;28;19978;-65
2022/09/29 03:08:47;;;;;;;;;;;16.10;96.00;;;;;;5037441;28;19909;-65
2022/09/29 03:11:12;;;;;;;;;;;16.10;96.00;;;;;;5036805;28;20018;-65
2022/09/29 03:13:41;;;;;;;;;;;16.20;95.90;;;;;;5037445;28;19924;-66
2022/09/29 03:16:10;;;;;;;;;;;16.20;95.90;;;;;;5036959;28;19909;-66
2022/09/29 03:18:36;;;;;;;;;;;16.20;95.90;;;;;;5036309;28;19920;-65
2022/09/29 03:21:02;;;;;;;;;;;16.10;95.80;;;;;;5037561;28;19909;-65
2022/09/29 03:23:27;;;;;;;;;;;16.20;95.90;;;;;;5037204;28;19909;-66
2022/09/29 03:25:56;;;;;;;;;;;16.20;95.80;;;;;;5036091;28;19919;-65
2022/09/29 03:28:24;;;;;;;;;;;16.20;95.80;;;;;;5035852;28;19913;-66
2022/09/29 03:30:54;;;;;;;;;;;16.20;95.80;;;;;;5035396;28;20015;-66
2022/09/29 03:33:23;;;;;;;;;;;16.10;95.70;;;;;;5035951;28;20112;-66
2022/09/29 03:35:48;;;;;;;;;;;16.20;95.70;;;;;;5035974;28;19985;-65
2022/09/29 03:38:13;;;;;;;;;;;16.20;95.70;;;;;;5036407;28;20067;-65
2022/09/29 03:40:42;;;;;;;;;;;16.20;95.70;;;;;;5036281;28;19909;-65
2022/09/29 03:43:07;;;;;;;;;;;16.10;95.60;;;;;;5036272;28;19916;-65
2022/09/29 03:45:33;;;;;;;;;;;16.20;95.60;;;;;;5036154;28;19909;-65
2022/09/29 03:47:58;;;;;;;;;;;16.20;95.60;;;;;;5036241;28;19920;-65
2022/09/29 03:50:24;;;;;;;;;;;16.10;95.60;;;;;;5036951;28;19912;-66
2022/09/29 03:52:53;;;;;;;;;;;16.10;95.60;;;;;;5036771;28;20016;-66
2022/09/29 03:55:18;;;;;;;;;;;16.10;95.60;;;;;;5036154;28;19912;-65
2022/09/29 03:57:44;;;;;;;;;;;16.10;95.50;;;;;;5038018;28;20206;-65
2022/09/29 04:00:10;;;;;;;;;;;16.10;95.50;;;;;;5040696;28;19908;-66
2022/09/29 04:02:36;;;;;;;;;;;16.10;95.50;;;;;;5039934;28;19935;-65
2022/09/29 04:05:01;;;;;;;;;;;16.10;95.50;;;;;;5038932;28;20263;-66
2022/09/29 04:07:27;;;;;;;;;;;16.10;95.60;;;;;;5036637;28;19909;-65
2022/09/29 04:09:53;;;;;;;;;;;16.10;95.50;;;;;;5037373;28;19913;-65
2022/09/29 04:12:21;;;;;;;;;;;16.10;95.50;;;;;;5036676;28;20087;-65
2022/09/29 04:14:47;;;;;;;;;;;16.10;95.80;;;;;;5036199;28;19912;-65
2022/09/29 04:17:12;;;;;;;;;;;16.10;95.50;;;;;;5033604;28;19974;-66
2022/09/29 04:19:38;;;;;;;;;;;16.10;95.50;;;;;;5034970;28;19909;-66
2022/09/29 04:22:03;;;;;;;;;;;16.10;95.50;;;;;;5037596;28;19936;-66
2022/09/29 04:24:29;;;;;;;;;;;16.10;95.50;;;;;;5035009;28;19919;-66
2022/09/29 04:26:54;;;;;;;;;;;16.00;95.50;;;;;;5034529;28;19971;-66
2022/09/29 04:29:20;;;;;;;;;;;16.10;95.50;;;;;;5035900;28;19952;-65
2022/09/29 04:31:48;;;;;;;;;;;16.10;95.70;;;;;;5034916;28;20186;-65
2022/09/29 04:34:14;;;;;;;;;;;16.00;95.40;;;;;;5034572;28;20306;-66
2022/09/29 04:36:40;;;;;;;;;;;16.00;95.50;;;;;;5034613;28;19916;-66
2022/09/29 04:39:06;;;;;;;;;;;16.10;95.50;;;;;;5036349;28;19974;-66
2022/09/29 04:41:33;;;;;;;;;;;16.00;95.40;;;;;;5035541;28;20196;-65
2022/09/29 04:43:59;;;;;;;;;;;16.00;95.50;;;;;;5036272;28;19909;-65
2022/09/29 04:46:27;;;;;;;;;;;16.00;95.50;;;;;;5036344;28;19909;-66
2022/09/29 04:48:56;;;;;;;;;;;16.00;95.50;;;;;;5034893;28;19908;-65
2022/09/29 04:51:21;;;;;;;;;;;16.00;95.50;;;;;;5035496;28;19920;-66
2022/09/29 04:53:47;;;;;;;;;;;16.00;95.50;;;;;;5034295;28;19909;-65
2022/09/29 04:56:16;;;;;;;;;;;16.00;95.50;;;;;;5036703;28;19948;-66
2022/09/29 04:58:44;;;;;;;;;;;16.00;95.50;;;;;;5036615;28;20484;-65
2022/09/29 05:01:13;;;;;;;;;;;16.00;95.40;;;;;;5034714;28;19909;-66
2022/09/29 05:03:39;;;;;;;;;;;16.00;95.40;;;;;;5033347;28;19917;-65
2022/09/29 05:06:08;;;;;;;;;;;16.00;95.40;;;;;;5031349;28;20045;-66
2022/09/29 05:08:34;;;;;;;;;;;16.00;95.40;;;;;;5033347;28;19908;-66
2022/09/29 05:11:06;;;;;;;;;;;16.00;95.40;;;;;;5034299;28;19994;-66
2022/09/29 05:13:35;;;;;;;;;;;16.00;95.40;;;;;;5032376;28;19948;-65
2022/09/29 05:16:01;;;;;;;;;;;16.00;95.40;;;;;;5032116;28;19909;-66
2022/09/29 05:18:27;;;;;;;;;;;16.00;95.40;;;;;;5032345;28;19908;-66
2022/09/29 05:20:53;;;;;;;;;;;16.00;95.50;;;;;;5033281;28;19905;-65
2022/09/29 05:23:18;;;;;;;;;;;16.00;95.60;;;;;;5032791;28;19974;-66
2022/09/29 05:25:44;;;;;;;;;;;16.00;95.70;;;;;;5031299;28;20316;-66
2022/09/29 05:28:10;;;;;;;;;;;16.00;95.70;;;;;;5028819;28;20353;-66
2022/09/29 05:30:36;;;;;;;;;;;16.00;95.80;;;;;;5030605;28;19913;-65
2022/09/29 05:33:02;;;;;;;;;;;15.90;95.90;;;;;;5030700;28;19909;-66
2022/09/29 05:35:27;;;;;;;;;;;16.00;96.00;;;;;;5028957;28;19919;-66
2022/09/29 05:37:56;;;;;;;;;;;15.90;96.10;;;;;;5028229;28;20112;-65
2022/09/29 05:40:25;;;;;;;;;;;15.90;96.20;;;;;;5027845;28;19952;-65
2022/09/29 05:42:51;;;;;;;;;;;15.90;96.30;;;;;;5029648;28;20202;-65
2022/09/29 05:45:20;;;;;;;;;;;15.90;96.50;;;;;;5028437;28;19985;-65
2022/09/29 05:47:48;;;;;;;;;;;15.90;96.70;;;;;;5026210;28;19909;-66
2022/09/29 05:50:14;;;;;;;;;;;15.90;96.90;;;;;;5026273;28;19913;-66
2022/09/29 05:52:40;;;;;;;;;;;16.00;97.00;;;;;;5026618;28;19908;-65
2022/09/29 05:55:08;;;;;;;;;;;16.00;96.90;;;;;;5026506;28;19919;-66
2022/09/29 05:57:34;;;;;;;;;;;16.10;96.80;;;;;;5025988;28;19913;-66
2022/09/29 06:00:00;;;;;;;;;;;16.10;96.60;;;;;;5024297;28;19913;-66
2022/09/29 06:02:29;;;;;;;;;;;16.20;96.50;;;;;;5027593;28;20086;-66
2022/09/29 06:04:57;;;;;;;;;;;16.30;96.40;;;;;;5028941;28;19909;-66
2022/09/29 06:07:23;;;;;;;;;;;16.30;96.10;;;;;;5029651;28;19909;-66
2022/09/29 06:09:49;;;;;;;;;;;16.40;96.00;;;;;;5030371;28;19921;-66
2022/09/29 06:12:14;;;;;;;;;;;16.40;95.80;;;;;;5025800;28;20042;-65
2022/09/29 06:14:40;;;;;;;;;;;16.50;95.50;;;;;;5025607;28;20191;-65
2022/09/29 06:17:05;;;;;;;;;;;16.80;95.00;;;;;;5027381;28;20019;-66
2022/09/29 06:19:31;;;;;;;;;;;17.00;94.40;;;;;;5026382;28;20081;-67
2022/09/29 06:21:56;;;;;;;;;;;17.70;92.90;;;;;;5029830;28;19937;-66
2022/09/29 06:24:25;;;;;;;;;;;18.30;91.00;;;;;;5027601;28;20290;-66
2022/09/29 06:26:50;;;;;;;;;;;18.70;88.20;;;;;;5027668;28;20213;-66
2022/09/29 06:29:16;;;;;;;;;;;19.10;84.60;;;;;;5029133;28;19908;-66
2022/09/29 06:31:42;;;;;;;;;;;19.50;81.00;;;;;;5029316;28;19921;-66
2022/09/29 06:34:08;;;;;;;;;;;19.80;77.80;;;;;;5030929;28;19934;-66
2022/09/29 06:39:28;;;;;;;;;;;20.40;73.10;;;;;;5047599;28;20004;-66
2022/09/29 06:41:55;;;;;;;;;;;20.70;70.70;;;;;;5028999;28;19912;-65
2022/09/29 06:44:23;;;;;;;;;;;20.90;68.80;;;;;;5028448;28;20124;-65
2022/09/29 06:46:50;;;;;;;;;;;21.10;66.90;;;;;;5030682;28;19905;-66
2022/09/29 06:49:19;;;;;;;;;;;21.30;65.20;;;;;;5030577;28;19909;-65
2022/09/29 06:51:47;;;;;;;;;;;21.60;63.70;;;;;;5031188;28;19962;-66
2022/09/29 06:54:15;;;;;;;;;;;21.80;62.10;;;;;;5030302;28;19940;-66
2022/09/29 06:56:41;;;;;;;;;;;22.00;60.70;;;;;;5029439;28;20258;-66
2022/09/29 06:59:07;;;;;;;;;;;22.20;59.50;;;;;;5029402;28;19915;-66
2022/09/29 07:01:33;;;;;;;;;;;22.50;58.70;;;;;;5028911;28;20003;-66
2022/09/29 07:04:01;;;;;;;;;;;22.70;58.00;;;;;;5028716;28;19970;-66
2022/09/29 07:06:28;;;;;;;;;;;23.00;57.30;;;;;;5029160;28;19917;-66
2022/09/29 07:08:57;;;;;;;;;;;23.30;56.60;;;;;;5028113;28;19919;-65
2022/09/29 07:11:23;;;;;;;;;;;23.50;55.90;;;;;;5029525;28;20209;-66
2022/09/29 07:13:50;;;;;;;;;;;23.70;55.20;;;;;;5046551;28;19916;-66
2022/09/29 07:16:15;;;;;;;;;;;24.00;54.60;;;;;;5027869;28;19915;-66
2022/09/29 07:18:42;;;;;;;;;;;24.20;54.10;;;;;;5027333;28;20213;-66
2022/09/29 07:21:11;;;;;;;;;;;24.40;53.60;;;;;;5027932;28;19909;-66
2022/09/29 07:23:38;;;;;;;;;;;24.60;53.10;;;;;;5027812;28;20414;-66
2022/09/29 07:26:05;;;;;;;;;;;24.80;52.70;;;;;;5028326;28;19979;-66
2022/09/29 07:28:31;;;;;;;;;;;25.00;52.20;;;;;;5029629;28;20136;-66
2022/09/29 07:31:10;;;;;;;;;;;25.20;51.90;;;;;;5030923;28;20061;-66
2022/09/29 07:33:38;;;;;;;;;;;25.50;51.50;;;;;;5033476;28;20275;-66
2022/09/29 07:36:04;;;;;;;;;;;25.70;51.10;;;;;;5032090;28;20279;-66
2022/09/29 07:38:30;;;;;;;;;;;25.90;50.70;;;;;;5029547;28;20042;-66
2022/09/29 07:41:01;;;;;;;;;;;26.10;50.40;;;;;;5030287;28;20225;-66
2022/09/29 07:43:27;;;;;;;;;;;26.20;50.00;;;;;;5031764;28;19908;-66
2022/09/29 07:45:52;;;;;;;;;;;26.40;49.80;;;;;;5047133;28;20138;-67
2022/09/29 07:48:18;;;;;;;;;;;26.60;49.50;;;;;;5033518;28;20224;-67
2022/09/29 07:50:44;;;;;;;;;;;26.70;49.20;;;;;;5032262;28;19944;-66
2022/09/29 07:53:10;;;;;;;;;;;26.90;48.90;;;;;;5032065;28;20126;-66
2022/09/29 07:55:39;;;;;;;;;;;27.10;48.60;;;;;;5030760;28;19909;-66
2022/09/29 07:58:08;;;;;;;;;;;27.20;48.30;;;;;;5028062;28;19936;-67
2022/09/29 08:00:34;;;;;;;;;;;27.40;48.10;;;;;;5030027;28;19952;-67
2022/09/29 08:03:03;;;;;;;;;;;27.50;47.90;;;;;;5030423;28;19964;-64
2022/09/29 08:05:32;;;;;;;;;;;27.60;47.70;;;;;;5030303;28;20389;-64
2022/09/29 08:07:59;;;;;;;;;;;27.70;47.50;;;;;;5030252;28;20020;-66
2022/09/29 08:10:28;;;;;;;;;;;27.80;47.30;;;;;;5030248;28;19920;-65
2022/09/29 08:12:54;;;;;;;;;;;27.90;47.20;;;;;;5031013;28;19909;-66
2022/09/29 08:15:20;;;;;;;;;;;28.00;47.00;;;;;;5030700;28;20308;-63
2022/09/29 08:17:46;;;;;;;;;;;28.10;46.90;;;;;;5030823;28;20345;-65
2022/09/29 08:20:12;;;;;;;;;;;28.20;46.70;;;;;;5030129;28;20287;-65
2022/09/29 08:22:37;;;;;;;;;;;28.20;46.60;;;;;;5028620;28;20173;-65
2022/09/29 08:25:03;;;;;;;;;;;28.30;46.50;;;;;;5029512;28;19931;-65
2022/09/29 08:27:32;;;;;;;;;;;28.40;46.40;;;;;;5030351;28;19909;-65
2022/09/29 08:29:57;;;;;;;;;;;28.50;46.20;;;;;;5029721;28;20184;-65
2022/09/29 08:32:26;;;;;;;;;;;28.60;46.00;;;;;;5027191;28;20340;-65
2022/09/29 08:34:52;;;;;;;;;;;28.80;45.90;;;;;;5026898;28;19916;-65
2022/09/29 08:37:17;;;;;;;;;;;28.90;45.80;;;;;;5025671;28;20183;-65
2022/09/29 08:39:43;;;;;;;;;;;28.90;45.60;;;;;;5026426;28;20022;-65
2022/09/29 08:42:24;;;;;;;;;;;29.00;45.50;;;;;;5026173;28;20275;-65
2022/09/29 08:44:50;;;;;;;;;;;29.20;45.40;;;;;;5030701;28;20091;-65
2022/09/29 08:47:19;;;;;;;;;;;29.20;45.30;;;;;;5028129;28;20114;-65
2022/09/29 08:49:51;;;;;;;;;;;29.20;45.20;;;;;;5030008;28;20093;-65
2022/09/29 08:52:26;;;;;;;;;;;29.30;45.10;;;;;;5030232;28;19912;-65
2022/09/29 08:55:01;;;;;;;;;;;29.40;45.10;;;;;;5027800;28;19915;-66
2022/09/29 08:57:27;;;;;;;;;;;29.50;45.00;;;;;;5029651;28;19924;-66
2022/09/29 08:59:57;;;;;;;;;;;29.50;44.80;;;;;;5028233;28;19909;-66
2022/09/29 09:02:41;;;;;;;;;;;29.60;44.80;;;;;;5026899;28;20217;-66
2022/09/29 09:05:13;;;;;;;;;;;29.60;44.70;;;;;;5028884;28;19916;-66
2022/09/29 09:07:39;;;;;;;;;;;29.70;44.70;;;;;;5029160;28;20139;-66
2022/09/29 09:10:08;;;;;;;;;;;29.70;44.60;;;;;;5029122;28;20038;-66
2022/09/29 09:12:57;;;;;;;;;;;29.70;44.60;;;;;;5029901;28;20250;-66
2022/09/29 09:15:29;;;;;;;;;;;29.80;44.60;;;;;;5031642;28;20178;-66
2022/09/29 09:18:13;;;;;;;;;;;29.80;45.00;;;;;;5029738;28;19909;-65
2022/09/29 09:20:54;;;;;;;;;;;29.70;44.70;;;;;;5030407;28;19936;-65
2022/09/29 09:23:21;;;;;;;;;;;29.70;44.70;;;;;;5030631;28;20199;-66
2022/09/29 09:25:46;;;;;;;;;;;29.40;44.90;;;;;;5029635;28;19916;-65
2022/09/29 09:28:16;;;;;;;;;;;29.50;44.90;;;;;;5030377;28;20163;-66
2022/09/29 09:30:45;;;;;;;;;;;29.60;45.00;;;;;;5028979;28;19916;-66
2022/09/29 09:33:18;;;;;;;;;;;29.10;44.80;;;;;;5029245;28;19978;-66
2022/09/29 09:35:48;;;;;;;;;;;27.60;45.90;;;;;;5029054;28;19908;-65
2022/09/29 09:38:17;;;;;;;;;;;26.20;47.00;;;;;;5029968;28;20290;-65
2022/09/29 09:40:44;;;;;;;;;;;24.90;48.10;;;;;;5030714;28;20266;-65
2022/09/29 09:43:13;;;;;;;;;;;24.10;49.30;;;;;;5029816;28;20485;-65
2022/09/29 09:45:47;;;;;;;;;;;23.50;50.10;;;;;;5028285;28;20201;-65
2022/09/29 09:48:13;;;;;;;;;;;23.10;51.50;;;;;;5027907;28;20101;-65
2022/09/29 09:50:41;;;;;;;;;;;22.60;51.70;;;;;;5029188;28;19924;-65
2022/09/29 09:53:27;;;;;;;;;;;22.30;52.30;;;;;;5030274;28;19970;-65
2022/09/29 09:56:16;;;;;;;;;;;22.10;52.90;;;;;;5029487;28;19917;-65
2022/09/29 09:58:42;;;;;;;;;;;21.90;53.80;;;;;;5000235;28;20294;-65
2022/09/29 10:01:11;;;;;;;;;;;21.60;54.50;;;;;;5030448;28;19908;-65
2022/09/29 10:03:37;;;;;;;;;;;21.50;55.30;;;;;;5028440;28;20186;-65
2022/09/29 10:06:05;;;;;;;;;;;21.30;56.50;;;;;;5030678;28;20126;-65
2022/09/29 10:08:38;;;;;;;;;;;21.20;56.80;;;;;;5030615;28;20286;-65
2022/09/29 10:11:13;;;;;;;;;;;21.30;57.40;;;;;;5028141;28;19960;-65
2022/09/29 10:13:39;;;;;;;;;;;21.30;57.80;;;;;;5027561;28;19917;-65
2022/09/29 10:16:31;;;;;;;;;;;21.20;58.30;;;;;;5028340;28;20267;-65
2022/09/29 10:18:56;;;;;;;;;;;21.20;58.70;;;;;;5024156;28;20108;-66
2022/09/29 10:21:25;;;;;;;;;;;21.30;59.30;;;;;;5028027;28;19963;-66
2022/09/29 10:23:51;;;;;;;;;;;21.30;59.60;;;;;;5028029;28;19916;-65
2022/09/29 10:26:24;;;;;;;;;;;21.30;59.80;;;;;;5025635;28;20069;-65
2022/09/29 10:28:52;;;;;;;;;;;21.40;60.10;;;;;;5027754;28;19913;-65
2022/09/29 10:31:20;;;;;;;;;;;21.40;60.50;;;;;;5025323;28;20152;-66
2022/09/29 10:33:50;;;;;;;;;;;21.40;61.00;;;;;;5027769;28;20285;-65
2022/09/29 10:36:19;;;;;;;;;;;21.40;61.70;;;;;;5025268;28;20437;-66
2022/09/29 10:38:49;;;;;;;;;;;21.30;62.30;;;;;;5027500;28;20277;-65
2022/09/29 10:41:15;;;;;;;;;;;21.30;62.80;;;;;;5027165;28;19909;-65
2022/09/29 10:43:42;;;;;;;;;;;21.20;63.70;;;;;;5026978;28;19909;-65
2022/09/29 10:46:26;;;;;;;;;;;21.20;64.20;;;;;;5043157;28;19939;-66
2022/09/29 10:49:10;;;;;;;;;;;21.20;64.70;;;;;;5025337;28;19909;-65
2022/09/29 10:51:36;;;;;;;;;;;21.20;65.90;;;;;;5025959;28;19913;-66
2022/09/29 10:54:10;;;;;;;;;;;21.20;66.20;;;;;;5025884;28;20042;-65
2022/09/29 10:56:35;;;;;;;;;;;21.10;66.50;;;;;;5026199;28;19919;-66
2022/09/29 10:59:04;;;;;;;;;;;21.10;67.20;;;;;;5027624;28;19909;-66
2022/09/29 11:01:31;;;;;;;;;;;21.00;67.20;;;;;;5027031;28;20353;-65
2022/09/29 11:04:04;;;;;;;;;;;21.00;68.00;;;;;;5028292;28;19916;-66
2022/09/29 11:06:34;;;;;;;;;;;21.00;68.50;;;;;;5029778;28;19909;-65
2022/09/29 11:09:04;;;;;;;;;;;21.00;68.50;;;;;;5029762;28;20021;-65
2022/09/29 11:11:34;;;;;;;;;;;21.00;69.10;;;;;;5031112;28;19920;-64
2022/09/29 11:13:59;;;;;;;;;;;21.00;69.90;;;;;;5037846;28;20221;-65
2022/09/29 11:16:29;;;;;;;;;;;21.00;69.50;;;;;;5049207;28;19908;-65
2022/09/29 11:19:01;;;;;;;;;;;21.00;69.60;;;;;;5047596;28;19915;-65
2022/09/29 11:21:40;;;;;;;;;;;21.00;69.70;;;;;;5045583;28;20108;-65
2022/09/29 11:24:16;;;;;;;;;;;20.90;70.10;;;;;;5045412;28;20117;-65
2022/09/29 11:26:55;;;;;;;;;;;20.90;70.50;;;;;;5043603;28;20065;-65
2022/09/29 11:29:20;;;;;;;;;;;20.90;70.80;;;;;;5046302;28;20257;-65
2022/09/29 11:31:46;;;;;;;;;;;20.80;71.20;;;;;;5046194;28;20121;-65
2022/09/29 11:34:44;;;;;;;;;;;20.80;71.40;;;;;;5046920;28;20243;-65
2022/09/29 11:37:19;;;;;;;;;;;20.80;71.90;;;;;;4993764;28;20410;-65
2022/09/29 11:40:10;;;;;;;;;;;20.80;72.30;;;;;;5048237;28;19908;-65
2022/09/29 11:42:36;;;;;;;;;;;20.80;72.50;;;;;;5049299;28;19968;-66
2022/09/29 11:45:06;;;;;;;;;;;20.70;72.70;;;;;;5049845;28;19909;-65
2022/09/29 11:47:31;;;;;;;;;;;20.70;73.10;;;;;;5050428;28;19969;-65
2022/09/29 11:50:06;;;;;;;;;;;20.70;73.40;;;;;;5049871;28;19909;-65
2022/09/29 11:52:31;;;;;;;;;;;20.70;73.70;;;;;;5051208;28;19935;-66
2022/09/29 11:55:05;;;;;;;;;;;20.60;73.80;;;;;;5050599;28;20351;-65
2022/09/29 11:57:49;;;;;;;;;;;20.60;74.00;;;;;;5049760;28;20023;-66
2022/09/29 12:00:19;;;;;;;;;;;20.60;74.40;;;;;;5050472;28;19909;-65
2022/09/29 12:03:03;;;;;;;;;;;20.60;74.60;;;;;;5051207;28;20188;-65
2022/09/29 12:05:35;;;;;;;;;;;20.60;74.80;;;;;;5051148;28;19912;-66
2022/09/29 12:08:12;;;;;;;;;;;20.60;74.80;;;;;;5047056;28;19908;-66
2022/09/29 12:10:44;;;;;;;;;;;20.60;74.90;;;;;;5049933;28;20270;-65
2022/09/29 12:13:20;;;;;;;;;;;20.60;75.20;;;;;;5052614;28;19916;-65
2022/09/29 12:16:06;;;;;;;;;;;20.60;75.40;;;;;;5053213;28;19908;-65
2022/09/29 12:18:53;;;;;;;;;;;20.60;75.70;;;;;;5050208;28;19952;-65
2022/09/29 12:21:26;;;;;;;;;;;20.60;76.10;;;;;;5051977;28;19909;-66
2022/09/29 12:23:56;;;;;;;;;;;20.50;76.50;;;;;;5053919;28;20007;-65
2022/09/29 12:26:23;;;;;;;;;;;20.50;76.90;;;;;;5052768;28;20317;-65
2022/09/29 12:28:49;;;;;;;;;;;20.40;77.30;;;;;;5053304;28;20053;-65
2022/09/29 12:31:34;;;;;;;;;;;20.40;77.70;;;;;;5049740;28;20179;-66
2022/09/29 12:34:13;;;;;;;;;;;20.40;78.00;;;;;;5047102;28;19993;-65
2022/09/29 12:36:52;;;;;;;;;;;20.40;78.10;;;;;;5050978;28;19916;-66
2022/09/29 12:39:24;;;;;;;;;;;20.40;78.10;;;;;;5049862;28;20259;-66
2022/09/29 12:42:00;;;;;;;;;;;20.40;78.30;;;;;;5050215;28;19909;-65
2022/09/29 12:44:37;;;;;;;;;;;20.40;78.60;;;;;;5048703;28;19909;-66
2022/09/29 12:47:03;;;;;;;;;;;20.40;78.90;;;;;;5048494;28;20032;-65
2022/09/29 12:49:28;;;;;;;;;;;20.40;79.40;;;;;;5047024;28;20390;-65
2022/09/29 12:51:59;;;;;;;;;;;20.40;79.60;;;;;;5045434;28;19970;-65
2022/09/29 12:54:43;;;;;;;;;;;20.40;79.90;;;;;;5046308;28;20003;-65
2022/09/29 13:00:17;;;;;;;;;;;20.30;80.40;;;;;;5065894;28;19961;-65
2022/09/29 13:03:02;;;;;;;;;;;20.30;80.70;;;;;;5059776;28;19920;-65
2022/09/29 13:05:46;;;;;;;;;;;20.30;80.90;;;;;;5054114;28;19908;-65
2022/09/29 13:08:21;;;;;;;;;;;20.30;81.00;;;;;;5049342;28;19909;-65
2022/09/29 13:11:06;;;;;;;;;;;20.30;81.20;;;;;;5047312;28;20330;-64
2022/09/29 13:13:34;;;;;;;;;;;20.30;81.30;;;;;;5048258;28;19912;-65
2022/09/29 13:16:09;;;;;;;;;;;20.30;81.60;;;;;;5048468;28;19909;-66
2022/09/29 13:18:38;;;;;;;;;;;20.30;81.60;;;;;;5049501;28;19912;-65
2022/09/29 13:21:10;;;;;;;;;;;20.30;82.00;;;;;;5049777;28;19909;-66
2022/09/29 13:23:38;;;;;;;;;;;20.30;82.10;;;;;;5048579;28;20174;-65
2022/09/29 13:26:15;;;;;;;;;;;20.20;82.30;;;;;;5047735;28;20323;-65
2022/09/29 13:28:42;;;;;;;;;;;20.20;82.50;;;;;;5048605;28;20003;-64
2022/09/29 13:31:11;;;;;;;;;;;20.20;82.60;;;;;;5047058;28;19920;-64
2022/09/29 13:33:37;;;;;;;;;;;20.20;82.80;;;;;;5048894;28;20099;-64
2022/09/29 13:36:03;;;;;;;;;;;20.20;83.10;;;;;;5049091;28;19913;-65
2022/09/29 13:38:37;;;;;;;;;;;20.20;83.10;;;;;;5032581;28;21707;-65
2022/09/29 13:41:09;;;;;;;;;;;20.20;83.20;;;;;;5049349;28;20120;-65
2022/09/29 13:43:53;;;;;;;;;;;20.20;83.50;;;;;;5046724;28;19909;-65
2022/09/29 13:46:30;;;;;;;;;;;20.20;83.70;;;;;;5044795;28;19935;-65
2022/09/29 13:49:11;;;;;;;;;;;20.20;83.90;;;;;;5045477;28;19908;-65
2022/09/29 13:51:45;;;;;;;;;;;20.10;84.10;;;;;;5044957;28;20027;-65
2022/09/29 13:54:29;;;;;;;;;;;20.10;84.30;;;;;;5044695;28;19915;-65
2022/09/29 13:57:23;;;;;;;;;;;20.10;84.60;;;;;;5046412;28;19909;-65
2022/09/29 13:59:51;;;;;;;;;;;20.10;85.00;;;;;;5035198;28;20274;-65
2022/09/29 14:02:35;;;;;;;;;;;20.10;85.20;;;;;;5047228;28;20247;-65
2022/09/29 14:05:05;;;;;;;;;;;20.10;85.30;;;;;;5045909;28;19977;-65
2022/09/29 14:07:38;;;;;;;;;;;20.10;85.50;;;;;;5043569;28;19973;-65
2022/09/29 14:10:16;;;;;;;;;;;20.10;85.60;;;;;;5046203;28;19920;-65
2022/09/29 14:12:46;;;;;;;;;;;20.10;85.70;;;;;;5042016;28;20024;-65
2022/09/29 14:15:16;;;;;;;;;;;20.10;85.80;;;;;;5049056;28;19909;-65
2022/09/29 14:17:44;;;;;;;;;;;20.10;85.90;;;;;;5030131;28;19944;-65
2022/09/29 14:20:18;;;;;;;;;;;20.10;86.10;;;;;;5045794;28;19909;-64
2022/09/29 14:22:44;;;;;;;;;;;20.10;87.30;;;;;;5032778;28;19913;-64
2022/09/29 14:25:10;;;;;;;;;;;20.10;87.50;;;;;;5033327;28;20383;-65
2022/09/29 14:27:48;;;;;;;;;;;20.10;87.40;;;;;;5031013;28;19919;-65
2022/09/29 14:30:16;;;;;;;;;;;20.10;87.40;;;;;;5029269;28;19924;-65
2022/09/29 14:32:53;;;;;;;;;;;20.10;87.50;;;;;;5026493;28;19909;-64
2022/09/29 14:35:23;;;;;;;;;;;20.10;87.50;;;;;;5027394;28;20144;-65
2022/09/29 14:38:04;;;;;;;;;;;20.10;87.50;;;;;;5026420;28;19924;-64